This is the latest recevied weather packets stored in our database for station/object AE7MK-13. If no packets are shown the sender has not sent any weather packets the latest 10 day(s).
| Time | Temp. | Humidity | Pressure | Rain* | Wind** | Luminosity | Snow |
|---|---|---|---|---|---|---|---|
| 1777468803 | 4.44° C | 77% | 1022.6 hPa | 0 mm | - | - | - |
| 1777459803 | 5° C | 74% | 1022 hPa | 0.25 mm | - | - | - |
| 1777456803 | 4.44° C | 74% | 1021.5 hPa | 0 mm | - | - | - |
| 1777452733 | 5° C | 73% | 1021.3 hPa | 0 mm | - | - | - |
| 1777450803 | 6.67° C | 69% | 1021.2 hPa | 0 mm | - | - | - |
| 1777449003 | 6.67° C | 67% | 1021.1 hPa | 0 mm | - | - | - |
| 1777446003 | 7.22° C | 64% | 1020.9 hPa | 0 mm | - | - | - |
| 1777442403 | 7.22° C | 63% | 1020.4 hPa | 0 mm | - | - | - |
| 1777441803 | 7.22° C | 63% | 1020.4 hPa | 0 mm | - | - | - |
| 1777441203 | 7.22° C | 63% | 1020.3 hPa | 0 mm | - | - | - |
| 1777438803 | 7.78° C | 62% | 1020.1 hPa | 0 mm | - | - | - |
| 1777438203 | 7.78° C | 61% | 1020.1 hPa | 0 mm | - | - | - |
| 1777431003 | 10° C | 56% | 1018.8 hPa | 0 mm | - | - | - |
| 1777420804 | 11.67° C | 44% | 1018.3 hPa | 0 mm | - | - | - |
| 1777417804 | 12.22° C | 46% | 1018.2 hPa | 0 mm | - | - | - |
| 1777416603 | 12.22° C | 44% | 1018.4 hPa | 0 mm | - | - | - |
| 1777412403 | 12.22° C | 43% | 1018.7 hPa | 0 mm | - | - | - |
| 1777411203 | 11.67° C | 46% | 1018.7 hPa | 0 mm | - | - | - |
| 1777408203 | 11.67° C | 46% | 1018.6 hPa | 0 mm | - | - | - |
| 1777407603 | 11.67° C | 47% | 1018.5 hPa | 0 mm | - | - | - |
| 1777404003 | 10.56° C | 48% | 1018.6 hPa | 0 mm | - | - | - |
| 1777403403 | 10.56° C | 47% | 1018.5 hPa | 0 mm | - | - | - |
| 1777399203 | 10° C | 51% | 1018.3 hPa | 0 mm | - | - | - |
| 1777398003 | 10° C | 52% | 1018.2 hPa | 0 mm | - | - | - |
| 1777393203 | 10° C | 47% | 1017.7 hPa | 0 mm | - | - | - |
* Rain latest hour (hover to see other rain measurements)
** Current wind speed in m/s (hover to see current wind gust speed)